EDDK/CGN METAR and TAF weather

Enter ICAO airport designator
Station Type Date Time Source
EDDK METAR 2021/01/17 18:50 UTC NOAA

EDDK 171850Z VRB01KT 8000 -RA SCT017 BKN022 01/01 Q1022 R14L/190195 R06/190195 BECMG 27005KT


Station Type Date Time Source
EDDK Decoded METAR 2021/01/17 18:50 UTC NOAA

Koeln / Bonn, Germany (EDDK) 50-52N 007-10E 100M
Jan 17, 2021 - 01:50 PM EST / 2021.01.17 1850 UTC
Wind: Variable at 1 MPH (1 KT):0
Visibility: 4 mile(s):0
Sky conditions: mostly cloudy
Weather: light rain
Temperature: 33 F (1 C)
Dew Point: 33 F (1 C)
Relative Humidity: 100%
Pressure (altimeter): 30.18 in. Hg (1022 hPa)
ob: EDDK 171850Z VRB01KT 8000 -RA SCT017 BKN022 01/01 Q1022 R14L/190195 R06/190195 BECMG 27005KT
cycle: 19

Station Type Date Time Source
EDDK TAF 2021/01/17 18:42 UTC NOAA

TAF TAF EDDK 171700Z 1718/1824 VRB03KT 2500 BR SCT005 BKN015
TEMPO 1718/1724 5000 BKN005
BECMG 1719/1722 29006KT
BECMG 1800/1804 8000 BKN006
BECMG 1804/1808 23005KT SCT006 BKN010
BECMG 1808/1811 SCT015 BKN020

Example: see airport list